Time;durP1;ratioP1;P1;durP2;ratioP2;P2;SDS_P1;SDS_P2;PMS_P1;PMS_P2;Temp;Humidity;BMP_temperature;BMP_pressure;BME280_temperature;BME280_humidity;BME280_pressure;Samples;Min_cycle;Max_cycle;Signal;HPM_P1;HPM_P2
2022/12/24 00:00:29;;;;;;;53.70;29.87;;;;;;;1.26;100.00;100474.34;5030471;28;20088;-73
2022/12/24 00:02:54;;;;;;;56.57;31.40;;;;;;;1.13;100.00;100465.81;5030437;28;20026;-73
2022/12/24 00:05:20;;;;;;;52.73;30.67;;;;;;;1.13;100.00;100473.44;5030093;28;20484;-73
2022/12/24 00:07:45;;;;;;;53.10;31.77;;;;;;;1.04;100.00;100469.31;5030374;28;20476;-73
2022/12/24 00:10:11;;;;;;;57.03;30.47;;;;;;;1.09;100.00;100480.72;5030466;28;20028;-73
2022/12/24 00:12:37;;;;;;;50.13;30.70;;;;;;;1.15;100.00;100477.72;5030402;28;20037;-73
2022/12/24 00:15:04;;;;;;;53.70;31.93;;;;;;;1.13;100.00;100481.06;5030278;28;20400;-73
2022/12/24 00:17:30;;;;;;;52.27;30.93;;;;;;;1.13;100.00;100477.63;5030128;28;20025;-73
2022/12/24 00:19:55;;;;;;;48.17;29.30;;;;;;;1.03;100.00;100437.03;5031526;28;20522;-73
2022/12/24 00:22:21;;;;;;;49.63;30.53;;;;;;;1.33;100.00;100473.16;5034169;28;20025;-73
2022/12/24 00:24:47;;;;;;;48.53;29.73;;;;;;;1.30;100.00;100468.72;5034060;28;20067;-73
2022/12/24 00:27:12;;;;;;;54.80;31.10;;;;;;;1.37;100.00;100476.03;5033973;28;20109;-73
2022/12/24 00:29:38;;;;;;;53.07;30.57;;;;;;;1.42;100.00;100459.44;5033723;28;20130;-73
2022/12/24 00:32:06;;;;;;;48.17;29.43;;;;;;;1.57;100.00;100463.88;5034021;28;20029;-73
2022/12/24 00:34:33;;;;;;;50.23;29.53;;;;;;;1.64;100.00;100465.22;5033427;28;20373;-73
2022/12/24 00:36:58;;;;;;;43.87;29.33;;;;;;;1.70;100.00;100475.84;4982483;28;20056;-73
2022/12/24 00:39:24;;;;;;;43.57;27.33;;;;;;;1.65;100.00;100474.63;5033707;28;20112;-73
2022/12/24 00:41:49;;;;;;;48.67;29.60;;;;;;;1.50;100.00;100443.88;5033970;28;20122;-73
2022/12/24 00:44:14;;;;;;;56.00;31.10;;;;;;;1.67;100.00;100455.25;5033643;28;20127;-73
2022/12/24 00:46:41;;;;;;;52.47;31.58;;;;;;;1.80;100.00;100469.75;5033375;28;20050;-73
2022/12/24 00:49:07;;;;;;;50.47;30.48;;;;;;;1.81;100.00;100474.03;5033239;28;20029;-73
2022/12/24 00:51:34;;;;;;;63.00;34.30;;;;;;;1.82;100.00;100473.28;5033699;28;20095;-73
2022/12/24 00:53:59;;;;;;;54.13;32.20;;;;;;;1.84;100.00;100469.19;5033507;28;20043;-73
2022/12/24 00:56:25;;;;;;;53.47;31.77;;;;;;;1.78;100.00;100452.72;5033431;28;20022;-73
2022/12/24 00:58:51;;;;;;;53.28;33.03;;;;;;;1.87;100.00;100460.13;5033611;28;20102;-73
2022/12/24 01:01:16;;;;;;;52.80;30.60;;;;;;;1.87;100.00;100452.47;5013190;28;20108;-73
2022/12/24 01:03:42;;;;;;;56.85;32.30;;;;;;;1.88;100.00;100461.00;4993540;28;20089;-72
2022/12/24 01:06:11;;;;;;;53.42;31.77;;;;;;;1.83;100.00;100450.47;5001626;28;20055;-73
2022/12/24 01:08:37;;;;;;;56.72;32.35;;;;;;;1.73;100.00;100450.59;5011357;28;20038;-73
2022/12/24 01:11:07;;;;;;;53.05;32.75;;;;;;;1.59;100.00;100431.78;5006235;28;20034;-73
2022/12/24 01:13:33;;;;;;;58.50;33.20;;;;;;;1.65;100.00;100446.63;4979290;28;20038;-73
2022/12/24 01:15:58;;;;;;;54.05;32.63;;;;;;;1.45;100.00;100402.81;5004978;28;20556;-73
2022/12/24 01:18:24;;;;;;;53.92;31.05;;;;;;;1.72;100.00;100446.28;5010015;28;20116;-73
2022/12/24 01:21:03;;;;;;;53.70;30.80;;;;;;;1.50;100.00;100423.50;5012354;28;20109;-73
2022/12/24 01:23:30;;;;;;;56.20;31.67;;;;;;;1.28;100.00;100411.75;5011746;28;20076;-72
2022/12/24 01:26:00;;;;;;;59.67;33.57;;;;;;;1.42;100.00;100435.66;5012611;28;20030;-72
2022/12/24 01:28:25;;;;;;;68.70;36.30;;;;;;;1.17;100.00;100421.13;5013025;28;20491;-73
2022/12/24 01:30:50;;;;;;;81.85;35.65;;;;;;;1.29;100.00;100452.56;5012445;28;20026;-73
2022/12/24 01:33:16;;;;;;;68.50;33.38;;;;;;;1.17;100.00;100448.22;5012736;28;20025;-73
2022/12/24 01:35:42;;;;;;;65.43;33.80;;;;;;;1.17;100.00;100454.19;5012658;28;20029;-73
2022/12/24 01:38:10;;;;;;;66.17;36.27;;;;;;;0.99;100.00;100415.59;5012746;28;20108;-73
2022/12/24 01:43:26;;;;;;;73.53;35.40;;;;;;;1.29;100.00;100432.22;5010757;28;20053;-72
2022/12/24 01:45:58;;;;;;;113.57;37.90;;;;;;;1.40;100.00;100445.72;5012044;28;20448;-73
2022/12/24 01:48:41;;;;;;;139.77;36.70;;;;;;;1.43;100.00;100434.88;5005644;28;20423;-73
2022/12/24 01:51:32;;;;;;;99.13;36.47;;;;;;;1.46;100.00;100440.22;5010137;28;20096;-73
2022/12/24 01:54:19;;;;;;;81.25;33.40;;;;;;;1.28;100.00;100424.47;5012460;28;20031;-72
2022/12/24 01:56:51;;;;;;;87.87;34.93;;;;;;;1.05;100.00;100425.34;4994584;28;20069;-73
2022/12/24 01:59:19;;;;;;;144.80;37.93;;;;;;;1.01;100.00;100408.06;5012133;28;20065;-73
2022/12/24 02:01:47;;;;;;;116.07;35.63;;;;;;;1.02;100.00;100400.53;5012099;28;20040;-73
2022/12/24 02:04:25;;;;;;;148.10;36.67;;;;;;;1.10;100.00;100416.41;5012064;28;20091;-72
2022/12/24 02:06:50;;;;;;;127.17;36.73;;;;;;;1.16;100.00;100423.56;5012096;28;20469;-72
2022/12/24 02:09:16;;;;;;;105.40;35.13;;;;;;;1.17;100.00;100420.25;5012274;28;20101;-73
2022/12/24 02:11:43;;;;;;;70.83;33.73;;;;;;;1.13;100.00;100419.16;5011984;28;20440;-73
2022/12/24 02:14:10;;;;;;;146.10;36.33;;;;;;;1.12;100.00;100423.34;5012080;28;20043;-73
2022/12/24 02:16:56;;;;;;;121.33;35.93;;;;;;;1.13;100.00;100420.06;5021209;28;20107;-72
2022/12/24 02:19:42;;;;;;;126.47;40.23;;;;;;;1.11;100.00;100419.03;5031801;28;20037;-73
2022/12/24 02:22:13;;;;;;;79.67;35.60;;;;;;;0.85;100.00;100388.25;4951182;29;20047;-72
2022/12/24 02:25:24;;;;;;;92.47;34.80;;;;;;;0.96;100.00;100420.47;4951030;29;20050;-73
2022/12/24 02:28:16;;;;;;;92.90;32.90;;;;;;;0.90;100.00;100420.88;4951146;29;20039;-72
2022/12/24 02:30:59;;;;;;;115.63;33.80;;;;;;;0.67;100.00;100378.47;4950869;29;20494;-72
2022/12/24 02:34:09;;;;;;;78.60;32.23;;;;;;;0.93;100.00;100422.75;4950829;29;20054;-72
2022/12/24 02:36:39;;;;;;;;;;;;;;;0.88;100.00;100412.25;4913192;29;20040;-72
2022/12/24 02:39:11;;;;;;;79.33;31.47;;;;;;;0.80;100.00;100414.22;4912923;29;20013;-73
2022/12/24 02:44:29;;;;;;;135.20;35.83;;;;;;;0.26;100.00;100374.59;4912412;29;20112;-73
2022/12/24 02:46:57;;;;;;;80.20;33.53;;;;;;;0.54;100.00;100426.63;4912423;29;20048;-73
2022/12/24 02:49:22;;;;;;;126.47;34.07;;;;;;;0.52;100.00;100415.44;4912690;29;20047;-73
2022/12/24 02:51:48;;;;;;;137.77;33.77;;;;;;;0.59;100.00;100432.94;4896600;29;20415;-73
2022/12/24 02:54:14;;;;;;;131.57;33.90;;;;;;;0.45;100.00;100429.34;4912186;29;20047;-72
2022/12/24 02:56:51;;;;;;;112.63;32.33;;;;;;;0.44;100.00;100423.34;4912419;29;20494;-72
2022/12/24 02:59:44;;;;;;;98.93;31.57;;;;;;;0.47;100.00;100426.16;4941939;28;20139;-73
2022/12/24 03:02:19;;;;;;;63.23;29.50;;;;;;;0.50;100.00;100429.66;4969453;28;20034;-73
2022/12/24 03:04:54;;;;;;;74.63;30.20;;;;;;;0.44;100.00;100433.53;4969576;28;20046;-73
2022/12/24 03:07:30;;;;;;;80.10;31.43;;;;;;;0.43;100.00;100431.75;4969749;28;20031;-72
2022/12/24 03:10:08;;;;;;;70.70;30.70;;;;;;;0.48;100.00;100444.81;4984550;28;20124;-72
2022/12/24 03:13:09;;;;;;;69.33;29.60;;;;;;;0.51;100.00;100441.59;5030995;28;20033;-72
2022/12/24 03:15:37;;;;;;;67.77;28.77;;;;;;;0.22;100.00;100399.63;4950253;29;20043;-72
2022/12/24 03:18:06;;;;;;;77.33;28.23;;;;;;;0.38;100.00;100432.16;4945415;29;20030;-72
2022/12/24 03:20:38;;;;;;;58.20;27.70;;;;;;;0.38;100.00;100440.66;4929648;29;20047;-72
2022/12/24 03:23:04;;;;;;;85.27;30.77;;;;;;;0.21;100.00;100434.28;4931086;29;20130;-72
2022/12/24 03:25:32;;;;;;;69.97;28.80;;;;;;;0.12;100.00;100433.56;4930829;29;20130;-72
2022/12/24 03:28:00;;;;;;;53.53;25.87;;;;;;;0.04;100.00;100439.69;4931015;29;20028;-72
2022/12/24 03:30:25;;;;;;;71.30;28.10;;;;;;;0.00;100.00;100446.22;4931083;29;20043;-72
2022/12/24 03:32:52;;;;;;;109.60;28.17;;;;;;;0.02;100.00;100441.25;4930902;29;20062;-74
2022/12/24 03:35:17;;;;;;;92.43;28.60;;;;;;;-0.11;100.00;100424.13;4930971;29;20495;-73
2022/12/24 03:37:43;;;;;;;80.07;27.90;;;;;;;-0.18;100.00;100430.41;4930963;29;20036;-72
2022/12/24 03:40:09;;;;;;;74.17;28.43;;;;;;;-0.15;100.00;100445.84;4930655;29;20055;-74
2022/12/24 03:42:34;;;;;;;68.63;27.87;;;;;;;-0.11;100.00;100449.53;4930631;29;20095;-73
2022/12/24 03:44:59;;;;;;;69.00;27.50;;;;;;;-0.19;100.00;100446.38;4930622;29;20047;-71
2022/12/24 03:47:25;;;;;;;59.57;26.93;;;;;;;-0.19;100.00;100447.28;4930876;29;20218;-73
2022/12/24 03:49:51;;;;;;;52.40;26.70;;;;;;;-0.13;100.00;100444.34;4930881;29;20036;-74
2022/12/24 03:52:16;;;;;;;66.20;27.57;;;;;;;-0.10;100.00;100441.16;4958004;28;20050;-74
2022/12/24 03:54:41;;;;;;;67.03;26.23;;;;;;;-0.04;100.00;100441.63;4974209;28;20062;-74
2022/12/24 03:57:10;;;;;;;63.03;27.50;;;;;;;0.02;100.00;100444.66;4975589;28;20042;-74
2022/12/24 03:59:36;;;;;;;67.07;20.80;;;;;;;0.02;100.00;100459.88;4975514;28;20027;-74
2022/12/24 04:02:01;;;;;;;68.87;23.93;;;;;;;-0.11;100.00;100454.59;4975696;28;20026;-76
2022/12/24 04:04:27;;;;;;;57.47;22.53;;;;;;;-0.18;100.00;100454.09;4975373;28;20031;-74
2022/12/24 04:06:53;;;;;;;58.83;21.80;;;;;;;-0.50;100.00;100409.31;4975284;28;20026;-75
2022/12/24 04:09:21;;;;;;;68.87;22.33;;;;;;;-0.33;100.00;100433.47;4975101;28;20035;-74
2022/12/24 04:11:46;;;;;;;43.87;20.80;;;;;;;-0.41;100.00;100437.06;4974885;28;20478;-75
2022/12/24 04:14:12;;;;;;;60.53;21.43;;;;;;;-0.39;100.00;100447.34;4974067;28;20122;-74
2022/12/24 04:16:37;;;;;;;70.00;23.97;;;;;;;-0.48;100.00;100450.03;4975350;28;20027;-74
2022/12/24 04:19:02;;;;;;;71.23;23.97;;;;;;;-0.46;100.00;100442.53;4975027;28;20089;-74
2022/12/24 04:21:28;;;;;;;76.47;24.27;;;;;;;-0.37;100.00;100455.97;4974925;28;20027;-73
2022/12/24 04:23:55;;;;;;;82.13;23.90;;;;;;;-0.43;100.00;100442.78;4975139;28;20031;-72
2022/12/24 04:26:20;;;;;;;64.83;24.40;;;;;;;-0.56;100.00;100402.84;4975042;28;20062;-73
2022/12/24 04:28:45;;;;;;;48.67;21.00;;;;;;;-0.33;100.00;100445.28;4975127;28;20439;-74
2022/12/24 04:31:13;;;;;;;46.93;22.60;;;;;;;-0.41;100.00;100451.38;4975181;28;20023;-74
2022/12/24 04:33:39;;;;;;;79.50;24.33;;;;;;;-0.45;100.00;100436.69;4974938;28;20035;-74
2022/12/24 04:36:06;;;;;;;53.80;22.43;;;;;;;-0.41;100.00;100441.25;4975122;28;20090;-74
2022/12/24 04:38:32;;;;;;;71.57;26.50;;;;;;;-0.45;100.00;100431.63;4988690;28;20110;-73
2022/12/24 04:41:00;;;;;;;50.93;23.33;;;;;;;-0.74;100.00;100397.22;4974873;28;20058;-73
2022/12/24 04:43:26;;;;;;;94.90;23.70;;;;;;;-0.55;100.00;100442.66;4973453;28;20033;-73
2022/12/24 04:45:52;;;;;;;67.87;21.97;;;;;;;-0.56;100.00;100444.34;4993476;28;20046;-74
2022/12/24 04:48:17;;;;;;;78.37;21.77;;;;;;;-0.66;100.00;100419.88;4993941;28;20027;-74
2022/12/24 04:50:42;;;;;;;70.83;25.83;;;;;;;-0.49;100.00;100440.63;4994010;28;20117;-74
2022/12/24 04:53:13;;;;;;;93.37;25.03;;;;;;;-0.58;100.00;100427.22;4994188;28;20026;-73
2022/12/24 04:55:45;;;;;;;60.90;21.67;;;;;;;-0.50;100.00;100444.84;4994088;28;20038;-72
2022/12/24 04:58:12;;;;;;;91.27;22.37;;;;;;;-0.65;100.00;100433.44;4993905;28;20113;-72
2022/12/24 05:00:38;;;;;;;71.27;22.97;;;;;;;-0.63;100.00;100451.31;4994090;28;20109;-72
2022/12/24 05:03:04;;;;;;;46.67;20.20;;;;;;;-0.57;100.00;100456.91;4993803;28;20027;-72
2022/12/24 05:05:29;;;;;;;124.17;24.33;;;;;;;-0.72;100.00;100438.78;4992940;28;20077;-73
2022/12/24 05:07:55;;;;;;;77.33;24.27;;;;;;;-0.63;100.00;100454.75;4943557;28;20406;-72
2022/12/24 05:10:21;;;;;;;56.73;24.40;;;;;;;-0.85;100.00;100404.84;4993580;28;20038;-70
2022/12/24 05:12:46;;;;;;;99.23;24.40;;;;;;;-0.59;100.00;100446.59;4959195;28;20460;-70
2022/12/24 05:15:11;;;;;;;56.83;18.67;;;;;;;-0.66;100.00;100442.69;4993609;28;20451;-70
2022/12/24 05:17:37;;;;;;;102.27;24.93;;;;;;;-0.79;100.00;100427.25;4993251;28;20037;-71
2022/12/24 05:20:02;;;;;;;83.03;25.23;;;;;;;-0.73;100.00;100447.16;4993565;28;20544;-70
2022/12/24 05:27:56;;;;;;;85.87;24.93;;;;;;;-0.89;100.00;100442.47;4993634;28;20046;-70
2022/12/24 05:30:21;;;;;;;48.43;21.50;;;;;;;-0.89;100.00;100438.28;4993441;28;20026;-70
2022/12/24 05:32:47;;;;;;;70.33;23.63;;;;;;;-0.97;100.00;100434.25;4993112;28;20026;-70
2022/12/24 05:35:12;;;;;;;52.53;22.57;;;;;;;-1.16;100.00;100402.31;4992994;28;20433;-70
2022/12/24 05:37:38;;;;;;;83.50;25.20;;;;;;;-0.98;100.00;100432.47;4993297;28;20109;-71
2022/12/24 05:40:04;;;;;;;58.23;24.27;;;;;;;-0.93;100.00;100443.00;4975639;28;20030;-71
2022/12/24 05:42:29;;;;;;;102.07;28.33;;;;;;;-0.92;100.00;100458.31;5005081;28;20037;-71
2022/12/24 05:44:54;;;;;;;88.10;26.67;;;;;;;-1.00;100.00;100417.16;5012328;28;20558;-72
2022/12/24 05:47:20;;;;;;;95.17;26.57;;;;;;;-0.71;100.00;100463.34;5003989;28;20038;-72
2022/12/24 05:49:45;;;;;;;104.23;24.07;;;;;;;-0.67;100.00;100460.31;4992769;28;20030;-73
2022/12/24 05:52:11;;;;;;;134.70;28.83;;;;;;;-0.70;100.00;100471.09;4992605;28;20121;-73
2022/12/24 05:54:36;;;;;;;91.90;28.17;;;;;;;-0.66;100.00;100468.06;4992816;28;20030;-73
2022/12/24 05:57:02;;;;;;;109.30;29.67;;;;;;;-0.62;100.00;100465.75;4992759;28;20027;-73
2022/12/24 05:59:27;;;;;;;56.17;23.33;;;;;;;-0.62;100.00;100465.75;5021177;28;20443;-73
2022/12/24 06:01:53;;;;;;;83.10;25.60;;;;;;;-0.56;100.00;100472.22;5021312;28;20096;-74
2022/12/24 06:04:18;;;;;;;56.67;24.70;;;;;;;-0.51;100.00;100473.47;5012156;28;20034;-74
2022/12/24 06:06:43;;;;;;;68.83;28.13;;;;;;;-0.55;100.00;100460.41;5012148;28;20038;-74
2022/12/24 06:09:09;;;;;;;93.07;24.90;;;;;;;-0.53;100.00;100476.66;5011695;28;20034;-74
2022/12/24 06:11:35;;;;;;;87.53;25.27;;;;;;;-0.56;100.00;100477.31;5012047;28;20099;-73
2022/12/24 06:14:00;;;;;;;83.50;23.60;;;;;;;-0.54;100.00;100483.38;5012015;28;20080;-72
2022/12/24 06:16:25;;;;;;;66.73;23.93;;;;;;;-0.46;100.00;100491.63;5011878;28;20087;-75
2022/12/24 06:18:53;;;;;;;75.60;24.23;;;;;;;-0.35;100.00;100495.00;5011470;28;20479;-73
2022/12/24 06:21:19;;;;;;;93.73;30.40;;;;;;;-0.28;100.00;100509.97;5011594;28;20038;-73
2022/12/24 06:23:45;;;;;;;99.13;27.13;;;;;;;-0.61;100.00;100460.81;5012057;28;20538;-72
2022/12/24 06:26:14;;;;;;;82.77;30.27;;;;;;;-0.39;100.00;100487.91;5011550;28;20415;-73
2022/12/24 06:28:39;;;;;;;74.83;31.67;;;;;;;-0.26;100.00;100502.47;5011626;28;20049;-73
2022/12/24 06:31:06;;;;;;;102.60;32.70;;;;;;;-0.33;100.00;100513.78;5011833;28;20771;-73
2022/12/24 06:33:33;;;;;;;93.40;27.67;;;;;;;-0.40;100.00;100496.28;4976884;28;20514;-72
2022/12/24 06:35:59;;;;;;;78.50;28.07;;;;;;;-0.34;100.00;100523.06;5011652;28;20026;-73
2022/12/24 06:38:24;;;;;;;78.33;36.87;;;;;;;-0.30;100.00;100530.91;5011655;28;20451;-73
2022/12/24 06:40:50;;;;;;;64.97;27.33;;;;;;;-0.26;100.00;100523.66;5011688;28;20087;-73
2022/12/24 06:43:15;;;;;;;92.10;28.37;;;;;;;-0.29;100.00;100510.72;5011167;28;20096;-73
2022/12/24 06:45:46;;;;;;;92.50;27.70;;;;;;;-0.13;100.00;100528.06;5011585;28;20073;-73
2022/12/24 06:48:13;;;;;;;78.67;26.93;;;;;;;-0.03;100.00;100529.69;5010850;28;20563;-73
2022/12/24 06:50:38;;;;;;;73.57;25.60;;;;;;;0.04;100.00;100521.81;5011392;28;20487;-73
2022/12/24 06:53:04;;;;;;;67.13;27.23;;;;;;;0.08;100.00;100520.41;4979060;28;20113;-73
2022/12/24 06:55:29;;;;;;;99.13;28.27;;;;;;;0.13;100.00;100516.59;4991838;28;20552;-73
2022/12/24 06:57:55;;;;;;;84.07;25.00;;;;;;;0.15;100.00;100515.94;4990009;28;20030;-73
2022/12/24 07:00:20;;;;;;;97.27;28.93;;;;;;;0.11;100.00;100525.72;5010514;28;20030;-73
2022/12/24 07:02:46;;;;;;;70.60;26.97;;;;;;;0.09;100.00;100510.38;4991356;28;20084;-72
2022/12/24 07:05:12;;;;;;;114.77;26.53;;;;;;;0.14;100.00;100506.53;4991359;28;20034;-72
2022/12/24 07:07:40;;;;;;;61.77;25.40;;;;;;;0.20;100.00;100512.88;4991804;28;20041;-72
2022/12/24 07:10:06;;;;;;;67.20;26.20;;;;;;;-0.06;100.00;100463.47;4993605;28;20407;-72
2022/12/24 07:12:32;;;;;;;60.93;21.33;;;;;;;0.10;100.00;100507.06;4993320;28;20026;-72
2022/12/24 07:14:58;;;;;;;70.10;21.97;;;;;;;0.10;100.00;100514.69;5010975;28;20044;-72
2022/12/24 07:17:23;;;;;;;63.43;21.20;;;;;;;0.10;100.00;100504.53;5010850;28;20037;-72
2022/12/24 07:19:48;;;;;;;46.33;20.67;;;;;;;-0.15;100.00;100470.34;5010882;28;20025;-72
2022/12/24 07:22:14;;;;;;;70.50;21.57;;;;;;;0.04;100.00;100521.81;5010996;28;20052;-72
2022/12/24 07:24:39;;;;;;;69.87;27.03;;;;;;;-0.06;100.00;100478.72;5011014;28;20030;-72
2022/12/24 07:27:05;;;;;;;83.80;23.47;;;;;;;0.15;100.00;100521.00;5010864;28;20041;-72
2022/12/24 07:29:30;;;;;;;39.63;17.63;;;;;;;0.06;100.00;100524.47;5010420;28;20545;-72
2022/12/24 07:31:55;;;;;;;65.57;20.00;;;;;;;-0.10;100.00;100514.75;5010568;28;20108;-72
2022/12/24 07:34:21;;;;;;;53.13;21.60;;;;;;;-0.13;100.00;100515.38;5010246;28;20026;-72
2022/12/24 07:36:47;;;;;;;55.93;22.70;;;;;;;-0.23;100.00;100488.38;5010733;28;20026;-72
2022/12/24 07:39:12;;;;;;;72.50;23.23;;;;;;;-0.10;100.00;100477.59;5010460;28;20034;-72
2022/12/24 07:41:38;;;;;;;73.63;21.90;;;;;;;-0.03;100.00;100484.00;5010884;28;20026;-73
2022/12/24 07:44:03;;;;;;;54.67;19.37;;;;;;;0.19;100.00;100518.69;5010484;28;20200;-73
2022/12/24 07:46:29;;;;;;;50.97;20.33;;;;;;;0.24;100.00;100523.41;5010527;28;20045;-73
2022/12/24 07:48:54;;;;;;;46.80;19.80;;;;;;;0.21;100.00;100512.09;5010781;28;20025;-73
2022/12/24 07:51:19;;;;;;;49.70;19.53;;;;;;;0.30;100.00;100520.47;5010501;28;20041;-73
2022/12/24 07:53:46;;;;;;;43.80;22.47;;;;;;;0.39;100.00;100533.00;5010602;28;20029;-73
2022/12/24 07:56:15;;;;;;;42.17;22.13;;;;;;;0.43;100.00;100524.84;5010474;28;20116;-73
2022/12/24 07:58:40;;;;;;;60.53;21.57;;;;;;;0.42;100.00;100516.31;5010404;28;20029;-73
2022/12/24 08:01:07;;;;;;;79.30;22.23;;;;;;;0.24;100.00;100476.81;5010758;28;20049;-73
2022/12/24 08:03:32;;;;;;;49.90;19.63;;;;;;;0.48;100.00;100511.72;5010595;28;20377;-73
2022/12/24 08:05:58;;;;;;;39.93;19.97;;;;;;;0.43;100.00;100520.63;5010416;28;20037;-73
2022/12/24 08:08:23;;;;;;;34.63;18.83;;;;;;;0.32;100.00;100498.59;5010424;28;20048;-73
2022/12/24 08:10:50;;;;;;;43.20;20.47;;;;;;;0.32;100.00;100498.59;5010240;28;20022;-73
2022/12/24 08:13:15;;;;;;;45.03;22.97;;;;;;;0.56;100.00;100508.88;4992863;28;20460;-73
2022/12/24 08:15:41;;;;;;;67.53;24.30;;;;;;;0.67;100.00;100508.06;5010420;28;20117;-73
2022/12/24 08:18:07;;;;;;;38.73;20.93;;;;;;;0.67;100.00;100510.59;5010540;28;20061;-73
2022/12/24 08:20:33;;;;;;;40.40;21.50;;;;;;;0.70;100.00;100497.25;5010286;28;20144;-73
2022/12/24 08:22:58;;;;;;;49.37;23.70;;;;;;;0.54;100.00;100470.69;5005507;28;20052;-73
2022/12/24 08:25:24;;;;;;;42.57;23.83;;;;;;;0.86;100.00;100517.09;5010012;28;20018;-73
2022/12/24 08:27:49;;;;;;;50.07;28.30;;;;;;;0.97;100.00;100518.81;5006415;28;20426;-73
2022/12/24 08:30:15;;;;;;;54.00;26.80;;;;;;;1.05;100.00;100517.75;5005679;28;20033;-73
2022/12/24 08:32:40;;;;;;;39.10;21.67;;;;;;;0.98;100.00;100507.88;5010414;28;20034;-73
2022/12/24 08:35:06;;;;;;;40.87;23.77;;;;;;;1.16;100.00;100510.03;5010410;28;20029;-73
2022/12/24 08:37:31;;;;;;;42.83;25.03;;;;;;;1.30;100.00;100511.97;5010141;28;20117;-73
2022/12/24 08:39:57;;;;;;;47.73;29.13;;;;;;;1.45;100.00;100514.75;5009942;28;20113;-73
2022/12/24 08:42:23;;;;;;;40.37;22.87;;;;;;;1.48;100.00;100509.00;5013696;28;20116;-73
2022/12/24 08:44:48;;;;;;;39.77;25.10;;;;;;;1.55;100.00;100503.59;5013722;28;20058;-73
2022/12/24 08:47:13;;;;;;;50.07;31.43;;;;;;;1.71;100.00;100513.25;5013565;28;20048;-73
2022/12/24 08:49:39;;;;;;;38.13;24.17;;;;;;;1.80;100.00;100511.34;5013794;28;20026;-73
2022/12/24 08:52:05;;;;;;;42.60;26.65;;;;;;;1.87;100.00;100505.94;5013381;28;20026;-73
2022/12/24 08:54:31;;;;;;;46.97;28.70;;;;;;;2.04;100.00;100494.41;5013349;28;20045;-73
2022/12/24 08:56:56;;;;;;;35.00;22.83;;;;;;;2.17;100.00;100491.09;5013648;28;20030;-74
2022/12/24 08:59:22;;;;;;;41.47;27.17;;;;;;;2.36;100.00;100484.75;5013492;28;20025;-73
2022/12/24 09:01:47;;;;;;;38.80;24.55;;;;;;;2.40;100.00;100494.34;5013141;28;20034;-73
2022/12/24 09:04:13;;;;;;;38.87;25.60;;;;;;;2.36;100.00;100472.88;5013190;28;20029;-73
2022/12/24 09:06:38;;;;;;;36.92;23.38;;;;;;;2.51;100.00;100483.25;5013500;28;20113;-73
2022/12/24 09:09:05;;;;;;;36.45;23.10;;;;;;;2.55;100.00;100474.16;5012930;28;20084;-73
2022/12/24 09:11:30;;;;;;;32.10;20.98;;;;;;;2.62;100.00;100465.25;5013351;28;20034;-73
2022/12/24 09:13:56;;;;;;;34.83;22.90;;;;;;;2.77;100.00;100468.88;5013131;28;20034;-73
2022/12/24 09:16:22;;;;;;;34.10;22.58;;;;;;;2.86;100.00;100464.38;4997871;28;20034;-74
2022/12/24 09:18:47;;;;;;;34.65;22.98;;;;;;;3.10;100.00;100465.94;5008510;28;20072;-73
2022/12/24 09:21:16;;;;;;;35.28;22.65;;;;;;;3.15;100.00;100445.03;5012850;28;20451;-73
2022/12/24 09:23:43;;;;;;;33.03;20.27;;;;;;;3.36;100.00;100455.78;5011041;28;20022;-73
2022/12/24 09:26:12;;;;;;;30.55;20.80;;;;;;;3.64;100.00;100466.91;5013159;28;20052;-73
2022/12/24 09:28:38;;;;;;;31.75;20.63;;;;;;;3.82;100.00;100454.44;5012681;28;20034;-73
2022/12/24 09:31:04;;;;;;;35.55;22.95;;;;;;;4.11;100.00;100460.50;5012971;28;20492;-73
2022/12/24 09:33:33;;;;;;;28.52;20.48;;;;;;;4.35;100.00;100459.47;5012520;28;20069;-73
2022/12/24 09:35:59;;;;;;;24.90;18.70;;;;;;;4.51;100.00;100460.41;5012980;28;20029;-73
2022/12/24 09:38:25;;;;;;;31.20;21.65;;;;;;;4.44;100.00;100427.63;5012270;28;20088;-73
2022/12/24 09:40:52;;;;;;;28.17;19.15;;;;;;;4.74;100.00;100459.25;5012633;28;20443;-73
2022/12/24 09:43:19;;;;;;;27.77;18.58;;;;;;;4.66;100.00;100423.00;5012807;28;20034;-73
2022/12/24 09:45:54;;;;;;;28.23;17.42;;;;;;;4.77;100.00;100440.66;5012186;28;20140;-73
2022/12/24 09:48:24;;;;;;;27.17;19.05;;;;;;;5.14;100.00;100476.09;4995898;28;20443;-73
2022/12/24 09:51:04;;;;;;;26.17;18.20;;;;;;;5.06;100.00;100429.59;5012248;28;20036;-73
2022/12/24 09:53:46;;;;;;;21.48;15.07;;;;;;;5.15;100.00;100431.78;5012525;28;20121;-73
2022/12/24 09:56:17;;;;;;;25.00;16.20;;;;;;;5.10;100.00;100402.50;5012547;28;20025;-73
2022/12/24 09:58:47;;;;;;;23.42;16.83;;;;;;;5.39;100.00;100423.75;5012455;28;20533;-73
2022/12/24 10:01:14;;;;;;;;;;;;;;;5.76;100.00;100460.00;5012608;28;20586;-73
2022/12/24 10:03:40;;;;;;;21.17;15.80;;;;;;;5.90;100.00;100468.47;5012459;28;19917;-73
2022/12/24 10:06:08;;;;;;;20.98;15.82;;;;;;;6.10;100.00;100453.34;5012421;28;20537;-73
2022/12/24 10:08:38;;;;;;;21.30;14.65;;;;;;;6.21;100.00;100451.38;5012486;28;20034;-73
2022/12/24 10:11:10;;;;;;;21.27;15.02;;;;;;;6.35;100.00;100444.41;5012508;28;20387;-73
2022/12/24 10:13:35;;;;;;;20.30;15.07;;;;;;;6.51;100.00;100451.25;5012170;28;20057;-73
2022/12/24 10:16:22;;;;;;;20.10;15.35;;;;;;;6.70;100.00;100450.53;5012056;28;20064;-72
2022/12/24 10:18:53;;;;;;;19.52;14.13;;;;;;;6.91;100.00;100448.19;5012316;28;20033;-73
2022/12/24 10:21:22;;;;;;;22.13;16.38;;;;;;;7.10;100.00;100445.75;5011956;28;20041;-72
2022/12/24 10:23:59;;;;;;;19.10;14.13;;;;;;;7.24;100.00;100433.63;5011749;28;20061;-73
2022/12/24 10:26:44;;;;;;;20.83;12.82;;;;;;;7.35;100.00;100429.00;5011808;28;20034;-73
2022/12/24 10:29:21;;;;;;;23.38;16.00;;;;;;;7.61;100.00;100442.22;5011871;28;20404;-73
2022/12/24 10:31:58;;;;;;;19.80;14.52;;;;;;;7.74;100.00;100433.44;5011757;28;20472;-73
2022/12/24 10:34:29;;;;;;;19.17;14.55;;;;;;;7.93;100.00;100438.63;5012021;28;20041;-73
2022/12/24 10:36:57;;;;;;;27.10;18.98;;;;;;;8.05;100.00;100437.44;5011714;28;20040;-73
2022/12/24 10:39:24;;;;;;;22.63;15.77;;;;;;;8.19;100.00;100428.69;5011544;28;20060;-72
2022/12/24 10:41:58;;;;;;;21.23;15.25;;;;;;;8.27;100.00;100426.44;5011408;28;20520;-73
2022/12/24 10:44:30;;;;;;;20.25;14.38;;;;;;;8.41;100.00;100427.06;5011604;28;20056;-73
2022/12/24 10:46:56;;;;;;;18.90;14.32;;;;;;;8.51;100.00;100423.25;5011252;28;20034;-73
2022/12/24 10:49:33;;;;;;;19.92;14.20;;;;;;;8.62;100.00;100423.72;5011361;28;20029;-73
2022/12/24 10:52:23;;;;;;;23.33;17.60;;;;;;;8.54;100.00;100395.09;5011406;28;20481;-73
2022/12/24 10:55:10;;;;;;;20.73;14.57;;;;;;;8.63;100.00;100410.06;4912277;29;20076;-73
2022/12/24 10:57:37;;;;;;;20.35;14.20;;;;;;;8.69;100.00;100412.91;4912428;29;20543;-73
2022/12/24 11:00:05;;;;;;;18.40;14.43;;;;;;;8.76;100.00;100409.78;4912498;29;20610;-72
2022/12/24 11:02:33;;;;;;;20.02;14.57;;;;;;;8.87;100.00;100410.22;4912599;29;20610;-72
2022/12/24 11:05:01;;;;;;;16.92;13.27;;;;;;;8.94;100.00;100408.81;4911962;29;20138;-73
2022/12/24 11:07:29;;;;;;;19.05;13.82;;;;;;;8.98;100.00;100402.97;4912551;29;20091;-72
2022/12/24 11:09:58;;;;;;;17.50;13.95;;;;;;;9.11;100.00;100404.34;4912231;29;20048;-72
2022/12/24 11:12:34;;;;;;;18.92;14.13;;;;;;;9.21;100.00;100401.38;4912253;29;20525;-72
2022/12/24 11:15:16;;;;;;;19.73;14.00;;;;;;;9.31;100.00;100398.34;4912281;29;20571;-72
2022/12/24 11:17:51;;;;;;;17.95;12.93;;;;;;;9.50;100.00;100405.09;4912177;29;20088;-72
2022/12/24 11:20:21;;;;;;;19.83;14.43;;;;;;;9.59;100.00;100388.25;4915634;29;20031;-73
2022/12/24 11:22:48;;;;;;;16.48;13.52;;;;;;;9.62;100.00;100375.47;4931116;29;20034;-73